Time;durP1;ratioP1;P1;durP2;ratioP2;P2;SDS_P1;SDS_P2;PMS_P1;PMS_P2;Temp;Humidity;BMP_temperature;BMP_pressure;BME280_temperature;BME280_humidity;BME280_pressure;Samples;Min_cycle;Max_cycle;Signal;HPM_P1;HPM_P2
2021/12/27 00:01:09;;;;;;;49.87;27.70;;;;;;;7.38;95.85;96255.94;5093264;28;20949;-34
2021/12/27 00:03:37;;;;;;;70.10;35.20;;;;;;;7.38;95.90;96263.84;5093330;28;20974;-34
2021/12/27 00:06:09;;;;;;;50.60;28.60;;;;;;;7.39;96.21;96254.09;5093273;28;20542;-34
2021/12/27 00:08:39;;;;;;;33.40;21.53;;;;;;;7.34;96.09;96262.72;5093439;28;20424;-34
2021/12/27 00:11:08;;;;;;;36.17;20.23;;;;;;;7.27;96.32;96267.31;5097199;28;20453;-34
2021/12/27 00:13:36;;;;;;;45.23;20.87;;;;;;;7.21;96.24;96270.84;5097298;28;20455;-34
2021/12/27 00:16:04;;;;;;;34.13;18.13;;;;;;;7.10;95.83;96277.72;5097643;28;20496;-34
2021/12/27 00:18:31;;;;;;;33.57;18.23;;;;;;;6.96;96.22;96274.44;5097571;28;20443;-33
2021/12/27 00:20:58;;;;;;;32.63;16.67;;;;;;;6.91;97.41;96276.97;5096987;28;20823;-34
2021/12/27 00:23:26;;;;;;;26.50;14.50;;;;;;;6.82;96.28;96286.25;5096872;28;20954;-36
2021/12/27 00:25:53;;;;;;;25.83;13.30;;;;;;;6.67;96.29;96281.38;5097044;28;20443;-33
2021/12/27 00:28:21;;;;;;;18.83;11.37;;;;;;;6.56;97.56;96288.22;5097553;28;20454;-33
2021/12/27 00:30:49;;;;;;;25.23;11.67;;;;;;;6.53;98.36;96288.63;5097615;28;20439;-33
2021/12/27 00:33:16;;;;;;;28.50;12.10;;;;;;;6.45;97.64;96291.56;5096837;28;20498;-33
2021/12/27 00:35:46;;;;;;;18.30;10.43;;;;;;;6.38;98.59;96293.50;5097299;28;20439;-33
2021/12/27 00:38:13;;;;;;;17.47;11.60;;;;;;;6.38;98.97;96297.97;5096905;28;20446;-33
2021/12/27 00:40:40;;;;;;;21.53;11.27;;;;;;;6.42;99.56;96293.88;5097064;28;20438;-35
2021/12/27 00:43:07;;;;;;;22.97;12.77;;;;;;;6.46;99.45;96290.56;5096834;28;20967;-35
2021/12/27 00:45:36;;;;;;;28.60;13.03;;;;;;;6.49;98.94;96279.56;5096762;28;20443;-35
2021/12/27 00:48:04;;;;;;;22.70;12.37;;;;;;;6.35;98.58;96267.59;5096907;28;20915;-35
2021/12/27 00:50:32;;;;;;;16.07;12.70;;;;;;;6.50;98.09;96277.75;5096886;28;20919;-36
2021/12/27 00:52:59;;;;;;;40.43;18.60;;;;;;;6.53;98.18;96291.28;5096729;28;20821;-34
2021/12/27 00:55:26;;;;;;;38.83;18.10;;;;;;;6.56;98.07;96284.78;5096861;28;20442;-35
2021/12/27 00:57:54;;;;;;;40.57;18.67;;;;;;;6.55;97.72;96283.16;5096884;28;20548;-34
2021/12/27 01:00:25;;;;;;;22.67;16.17;;;;;;;6.55;97.54;96277.88;5096760;28;20443;-34
2021/12/27 01:02:55;;;;;;;36.30;18.50;;;;;;;6.57;97.75;96295.09;5096377;28;20492;-35
2021/12/27 01:05:24;;;;;;;43.53;20.60;;;;;;;6.55;97.41;96289.22;5096496;28;20453;-34
2021/12/27 01:07:51;;;;;;;43.33;23.37;;;;;;;6.55;96.95;96305.03;5096589;28;20454;-35
2021/12/27 01:10:40;;;;;;;32.33;17.47;;;;;;;6.50;96.61;96302.28;5096157;28;20534;-34
2021/12/27 01:13:19;;;;;;;23.93;14.63;;;;;;;6.46;96.99;96301.13;5096253;28;20530;-35
2021/12/27 01:16:10;;;;;;;28.73;15.37;;;;;;;6.48;97.00;96277.16;5096205;28;20442;-35
2021/12/27 01:18:42;;;;;;;26.37;14.17;;;;;;;6.47;96.86;96292.16;5096200;28;20427;-35
2021/12/27 01:21:09;;;;;;;26.90;16.47;;;;;;;6.44;97.27;96287.34;5095645;28;20966;-35
2021/12/27 01:23:37;;;;;;;27.23;16.00;;;;;;;6.44;96.99;96282.06;5096288;28;20799;-34
2021/12/27 01:26:05;;;;;;;35.07;19.40;;;;;;;6.43;96.60;96280.47;5095982;28;20450;-35
2021/12/27 01:28:32;;;;;;;30.57;17.83;;;;;;;6.40;96.06;96270.34;5095827;28;20927;-35
2021/12/27 01:31:00;;;;;;;35.63;20.40;;;;;;;6.33;96.22;96280.19;5096088;28;20488;-35
2021/12/27 01:33:28;;;;;;;30.13;15.73;;;;;;;6.32;95.85;96286.47;5095637;28;20497;-35
2021/12/27 01:35:57;;;;;;;25.23;15.30;;;;;;;6.12;95.52;96258.53;5096130;28;20535;-35
2021/12/27 01:38:25;;;;;;;37.23;21.27;;;;;;;6.08;95.02;96252.06;5096002;28;20927;-35
2021/12/27 01:40:55;;;;;;;24.80;16.63;;;;;;;6.18;94.63;96282.41;5095700;28;20449;-35
2021/12/27 01:43:25;;;;;;;38.23;20.47;;;;;;;6.05;94.40;96286.78;5095894;28;20480;-35
2021/12/27 01:45:54;;;;;;;47.80;24.00;;;;;;;6.02;95.23;96289.84;5095629;28;20431;-35
2021/12/27 01:48:24;;;;;;;48.33;23.07;;;;;;;5.94;94.55;96266.41;5095822;28;20812;-35
2021/12/27 01:50:53;;;;;;;40.20;22.37;;;;;;;5.82;94.86;96270.78;5095539;28;20443;-35
2021/12/27 01:53:23;;;;;;;45.53;23.37;;;;;;;5.70;95.99;96274.16;5095674;28;20491;-35
2021/12/27 01:55:51;;;;;;;62.43;27.70;;;;;;;5.41;96.11;96251.94;5095722;28;20442;-33
2021/12/27 01:58:20;;;;;;;38.97;21.93;;;;;;;5.36;95.87;96279.94;5095298;28;20931;-32
2021/12/27 02:00:50;;;;;;;33.50;18.30;;;;;;;5.12;95.49;96272.63;5095315;28;20443;-32
2021/12/27 02:03:18;;;;;;;34.20;18.80;;;;;;;4.77;95.78;96251.22;5095434;28;20802;-32
2021/12/27 02:05:46;;;;;;;34.17;18.23;;;;;;;4.67;95.79;96271.94;5095194;28;20455;-32
2021/12/27 02:08:13;;;;;;;26.57;15.07;;;;;;;4.57;95.74;96272.38;5094985;28;21287;-33
2021/12/27 02:10:43;;;;;;;32.57;19.90;;;;;;;4.23;95.47;96260.41;5095101;28;20443;-32
2021/12/27 02:13:10;;;;;;;29.57;17.07;;;;;;;4.12;96.62;96282.09;5094972;28;20486;-33
2021/12/27 02:15:39;;;;;;;30.93;16.90;;;;;;;4.07;98.31;96293.22;5095042;28;20443;-32
2021/12/27 02:18:08;;;;;;;25.03;16.47;;;;;;;4.14;99.35;96298.44;5095363;28;20886;-32
2021/12/27 02:20:39;;;;;;;34.97;17.07;;;;;;;4.27;99.88;96287.88;5094849;28;20475;-32
2021/12/27 02:23:12;;;;;;;28.73;17.10;;;;;;;4.35;99.19;96292.91;5094868;28;20442;-33
2021/12/27 02:25:40;;;;;;;37.57;22.70;;;;;;;4.41;98.93;96286.81;5094848;28;20438;-32
2021/12/27 02:28:10;;;;;;;39.30;18.80;;;;;;;4.50;99.31;96303.97;5095188;28;20439;-32
2021/12/27 02:30:39;;;;;;;29.83;16.53;;;;;;;4.60;99.14;96297.44;5094746;28;20452;-33
2021/12/27 02:33:07;;;;;;;41.87;20.13;;;;;;;4.67;98.70;96292.97;5090045;28;20492;-33
2021/12/27 02:35:38;;;;;;;34.70;18.17;;;;;;;4.73;98.36;96292.09;5074420;28;20440;-33
2021/12/27 02:38:07;;;;;;;39.20;16.90;;;;;;;4.78;97.59;96296.75;5074359;28;20845;-32
2021/12/27 02:40:35;;;;;;;36.37;17.00;;;;;;;4.83;97.92;96302.16;5074242;28;20446;-32
2021/12/27 02:43:06;;;;;;;31.60;16.63;;;;;;;4.78;97.70;96294.91;5074450;28;20444;-32
2021/12/27 02:45:35;;;;;;;34.47;19.90;;;;;;;4.86;96.65;96301.72;5074516;28;20424;-31
2021/12/27 02:48:03;;;;;;;30.30;19.33;;;;;;;4.86;96.74;96310.44;5074068;28;20444;-32
2021/12/27 02:50:31;;;;;;;43.23;21.93;;;;;;;4.81;95.36;96285.78;5074013;28;20953;-32
2021/12/27 02:53:00;;;;;;;39.83;21.80;;;;;;;4.57;94.49;96282.09;5073859;28;20521;-31
2021/12/27 02:55:29;;;;;;;23.13;13.67;;;;;;;4.49;94.90;96291.00;5073691;28;20806;-31
2021/12/27 02:57:56;;;;;;;31.00;15.57;;;;;;;4.37;96.06;96292.72;5074188;28;20446;-31
2021/12/27 03:00:27;;;;;;;39.43;19.93;;;;;;;4.39;97.43;96288.84;5074164;28;20447;-32
2021/12/27 03:02:56;;;;;;;39.97;20.67;;;;;;;4.47;98.19;96293.88;5074130;28;20435;-31
2021/12/27 03:05:25;;;;;;;31.60;17.77;;;;;;;4.54;98.04;96277.25;5074066;28;20824;-31
2021/12/27 03:07:53;;;;;;;31.30;17.00;;;;;;;4.55;97.15;96284.13;5073817;28;20451;-31
2021/12/27 03:10:24;;;;;;;31.70;17.93;;;;;;;4.49;96.53;96285.75;5073625;28;20448;-31
2021/12/27 03:12:54;;;;;;;33.93;17.50;;;;;;;4.45;96.84;96285.38;5073587;28;20476;-31
2021/12/27 03:15:23;;;;;;;36.90;17.00;;;;;;;4.47;97.14;96290.41;5073898;28;20868;-34
2021/12/27 03:17:53;;;;;;;38.33;20.70;;;;;;;4.53;98.22;96280.91;5073655;28;20482;-34
2021/12/27 03:20:22;;;;;;;37.43;19.80;;;;;;;4.57;98.53;96275.00;5073392;28;20486;-34
2021/12/27 03:22:49;;;;;;;28.80;18.27;;;;;;;4.61;98.13;96278.81;5073539;28;20930;-34
2021/12/27 03:25:19;;;;;;;35.07;17.13;;;;;;;4.61;97.82;96293.81;5073427;28;20443;-34
2021/12/27 03:27:49;;;;;;;80.03;32.63;;;;;;;4.59;97.65;96293.22;5073745;28;20529;-35
2021/12/27 03:30:18;;;;;;;51.07;23.40;;;;;;;4.55;97.23;96300.69;5073873;28;20443;-34
2021/12/27 03:32:46;;;;;;;47.87;24.50;;;;;;;4.54;97.55;96293.00;5073102;28;20954;-34
2021/12/27 03:35:15;;;;;;;51.43;26.07;;;;;;;4.59;97.36;96306.34;5073403;28;20526;-34
2021/12/27 03:37:45;;;;;;;45.00;21.83;;;;;;;4.62;97.84;96295.41;5073690;28;20502;-35
2021/12/27 03:40:15;;;;;;;53.27;21.20;;;;;;;4.67;97.96;96303.47;5073263;28;20450;-34
2021/12/27 03:42:43;;;;;;;34.57;20.00;;;;;;;4.70;97.69;96308.31;5073056;28;20443;-35
2021/12/27 03:45:12;;;;;;;43.73;23.30;;;;;;;4.76;97.62;96302.22;5072472;28;20450;-34
2021/12/27 03:47:39;;;;;;;37.10;20.00;;;;;;;4.79;97.98;96304.41;5073739;28;20947;-34
2021/12/27 03:50:07;;;;;;;30.40;16.53;;;;;;;4.74;96.87;96304.25;5073135;28;20439;-34
2021/12/27 03:52:34;;;;;;;30.93;17.37;;;;;;;4.74;97.47;96293.72;5073428;28;20506;-35
2021/12/27 03:55:02;;;;;;;36.17;19.20;;;;;;;4.71;97.37;96288.88;5073159;28;20448;-34
2021/12/27 03:57:31;;;;;;;32.00;17.90;;;;;;;4.74;97.62;96303.44;5073467;28;20440;-34
2021/12/27 04:00:15;;;;;;;27.03;15.70;;;;;;;4.71;97.42;96296.75;5073074;28;20451;-34
2021/12/27 04:02:44;;;;;;;31.80;14.10;;;;;;;4.72;97.91;96307.06;5072964;28;20471;-32
2021/12/27 04:05:11;;;;;;;43.37;23.83;;;;;;;4.75;98.20;96305.84;5073353;28;20436;-31
2021/12/27 04:07:40;;;;;;;39.07;17.67;;;;;;;4.78;98.29;96310.69;5073654;28;20479;-33
2021/12/27 04:10:10;;;;;;;48.57;18.73;;;;;;;4.80;98.95;96307.88;5073518;28;20451;-31
2021/12/27 04:12:38;;;;;;;37.00;18.03;;;;;;;4.80;98.68;96308.66;5090598;28;20870;-31
2021/12/27 04:15:08;;;;;;;41.97;19.13;;;;;;;4.84;98.84;96303.75;5093184;28;20453;-31
2021/12/27 04:17:35;;;;;;;40.40;17.87;;;;;;;4.79;98.55;96314.94;5092985;28;20436;-32
2021/12/27 04:20:05;;;;;;;47.40;18.27;;;;;;;4.77;98.50;96324.06;5092970;28;20481;-32
2021/12/27 04:22:33;;;;;;;42.97;19.20;;;;;;;4.77;98.99;96316.97;5093169;28;20439;-33
2021/12/27 04:25:00;;;;;;;31.50;17.50;;;;;;;4.74;98.82;96314.75;5093332;28;20467;-32
2021/12/27 04:27:28;;;;;;;34.13;17.30;;;;;;;4.69;98.85;96312.78;5093343;28;20450;-31
2021/12/27 04:29:55;;;;;;;43.13;18.30;;;;;;;4.69;99.45;96306.72;5092990;28;20446;-31
2021/12/27 04:32:23;;;;;;;56.27;24.93;;;;;;;4.65;99.41;96300.25;5093238;28;20454;-31
2021/12/27 04:34:50;;;;;;;58.37;27.53;;;;;;;4.49;98.30;96304.97;5092921;28;20442;-32
2021/12/27 04:37:19;;;;;;;42.70;14.80;;;;;;;4.40;99.04;96314.09;5093027;28;20438;-31
2021/12/27 04:39:46;;;;;;;49.20;20.60;;;;;;;4.21;99.18;96283.47;5092925;28;20450;-32
2021/12/27 04:42:14;;;;;;;43.60;22.70;;;;;;;4.28;99.91;96302.63;5092934;28;20449;-32
2021/12/27 04:44:41;;;;;;;36.07;17.57;;;;;;;4.23;100.00;96308.50;5093292;28;20805;-32
2021/12/27 04:47:12;;;;;;;35.57;17.00;;;;;;;4.15;100.00;96315.81;5092800;28;20447;-32
2021/12/27 04:49:40;;;;;;;60.40;24.67;;;;;;;4.01;100.00;96305.34;5093236;28;20514;-32
2021/12/27 04:52:07;;;;;;;33.10;17.43;;;;;;;3.99;100.00;96302.13;5092787;28;20984;-35
2021/12/27 04:54:36;;;;;;;35.73;20.23;;;;;;;3.98;100.00;96312.81;5092806;28;20577;-34
2021/12/27 04:57:03;;;;;;;25.83;13.33;;;;;;;3.97;100.00;96309.41;5096515;28;20952;-31
2021/12/27 04:59:30;;;;;;;36.67;14.23;;;;;;;4.03;100.00;96313.84;5096448;28;20883;-32
2021/12/27 05:01:58;;;;;;;30.50;14.57;;;;;;;4.05;100.00;96306.56;5096159;28;20439;-32
2021/12/27 05:04:25;;;;;;;59.67;23.13;;;;;;;4.04;100.00;96309.38;5096353;28;20808;-31
2021/12/27 05:06:52;;;;;;;86.17;45.73;;;;;;;4.01;100.00;96310.59;5096639;28;20896;-31
2021/12/27 05:09:20;;;;;;;61.53;27.23;;;;;;;4.06;100.00;96304.72;5096582;28;20443;-32
2021/12/27 05:11:49;;;;;;;35.90;17.57;;;;;;;4.03;100.00;96308.56;5096431;28;20941;-32
2021/12/27 05:14:16;;;;;;;95.77;46.60;;;;;;;4.06;100.00;96318.66;5096104;28;20491;-32
2021/12/27 05:16:43;;;;;;;48.00;25.50;;;;;;;3.90;100.00;96321.75;5095072;28;20443;-31
2021/12/27 05:19:11;;;;;;;54.37;26.00;;;;;;;3.86;100.00;96323.16;5094987;28;20938;-33
2021/12/27 05:21:38;;;;;;;37.57;16.43;;;;;;;3.80;100.00;96314.28;5075906;28;20467;-32
2021/12/27 05:24:06;;;;;;;30.87;13.73;;;;;;;3.79;100.00;96317.94;5075816;28;20448;-33
2021/12/27 05:26:33;;;;;;;41.87;18.63;;;;;;;3.64;100.00;96319.97;5094321;28;20466;-32
2021/12/27 05:29:02;;;;;;;56.83;17.33;;;;;;;3.60;100.00;96319.56;5094149;28;20799;-31
2021/12/27 05:31:29;;;;;;;52.00;22.67;;;;;;;3.52;100.00;96317.16;5096179;28;20446;-31
2021/12/27 05:33:56;;;;;;;56.13;21.53;;;;;;;3.36;100.00;96309.69;5095640;28;20919;-31
2021/12/27 05:36:24;;;;;;;76.13;28.43;;;;;;;3.26;100.00;96308.28;5094978;28;20923;-32
2021/12/27 05:38:51;;;;;;;50.57;17.97;;;;;;;3.17;100.00;96319.97;5095569;28;20954;-32
2021/12/27 05:41:18;;;;;;;69.03;21.30;;;;;;;3.03;100.00;96315.72;5095722;28;20453;-32
2021/12/27 05:43:46;;;;;;;63.00;25.77;;;;;;;3.07;100.00;96316.94;5089129;28;20814;-32
2021/12/27 05:46:14;;;;;;;70.20;22.75;;;;;;;2.79;100.00;96290.88;5074659;28;20424;-32
2021/12/27 05:48:41;;;;;;;40.87;18.90;;;;;;;2.87;100.00;96320.34;5075721;28;20203;-31
2021/12/27 05:51:09;;;;;;;58.97;17.07;;;;;;;2.87;100.00;96320.34;5075451;28;20454;-32
2021/12/27 05:53:36;;;;;;;67.47;29.00;;;;;;;2.87;100.00;96317.72;5073859;28;20532;-32
2021/12/27 05:56:03;;;;;;;68.50;19.77;;;;;;;2.88;100.00;96321.13;5083332;28;20451;-32
2021/12/27 05:58:31;;;;;;;56.63;23.10;;;;;;;2.90;100.00;96328.81;5074996;28;20448;-32
2021/12/27 06:00:58;;;;;;;63.40;17.53;;;;;;;2.85;100.00;96306.63;5074754;28;20436;-32
2021/12/27 06:03:27;;;;;;;78.00;18.03;;;;;;;2.61;100.00;96288.84;5075280;28;20446;-32
2021/12/27 06:05:54;;;;;;;42.93;16.83;;;;;;;2.72;100.00;96308.41;5076889;28;20974;-32
2021/12/27 06:08:21;;;;;;;67.40;19.03;;;;;;;2.69;100.00;96309.63;5094369;28;20450;-32
2021/12/27 06:10:48;;;;;;;41.50;18.00;;;;;;;2.73;100.00;96321.34;5085764;28;20452;-32
2021/12/27 06:13:15;;;;;;;84.17;25.67;;;;;;;2.82;100.00;96301.78;5075099;28;20476;-32
2021/12/27 06:15:43;;;;;;;77.50;34.73;;;;;;;2.82;100.00;96320.13;5075004;28;20448;-32
2021/12/27 06:18:10;;;;;;;79.97;34.00;;;;;;;2.93;100.00;96320.56;5074627;28;20931;-32
2021/12/27 06:20:39;;;;;;;79.93;40.10;;;;;;;2.76;100.00;96302.56;5074483;28;20475;-32
2021/12/27 06:23:06;;;;;;;78.53;32.55;;;;;;;3.07;100.00;96316.94;5073829;28;20428;-32
2021/12/27 06:25:34;;;;;;;84.53;32.67;;;;;;;3.12;100.00;96306.66;5074372;28;20203;-32
2021/12/27 06:28:01;;;;;;;67.13;22.83;;;;;;;3.18;100.00;96305.84;5073975;28;20464;-35
2021/12/27 06:30:28;;;;;;;41.27;21.00;;;;;;;3.31;100.00;96310.28;5073951;28;20448;-34
2021/12/27 06:32:55;;;;;;;76.90;24.77;;;;;;;3.51;100.00;96310.28;5085658;28;20528;-35
2021/12/27 06:35:22;;;;;;;67.77;25.53;;;;;;;3.69;100.00;96309.66;5073619;28;20499;-34
2021/12/27 06:37:51;;;;;;;67.73;24.37;;;;;;;3.76;100.00;96291.25;5078110;28;20447;-36
2021/12/27 06:40:18;;;;;;;42.43;20.10;;;;;;;3.63;100.00;96292.09;5077517;28;20485;-34
2021/12/27 06:42:46;;;;;;;50.37;21.00;;;;;;;3.41;100.00;96300.19;5076044;28;20447;-35
2021/12/27 06:45:14;;;;;;;52.53;21.83;;;;;;;3.40;100.00;96301.22;5087281;28;20504;-34
2021/12/27 06:47:41;;;;;;;43.30;18.07;;;;;;;3.27;100.00;96275.78;5092865;28;20447;-35
2021/12/27 06:50:10;;;;;;;41.33;16.93;;;;;;;3.40;100.00;96292.50;5093265;28;20446;-35
2021/12/27 06:52:37;;;;;;;56.60;21.57;;;;;;;3.42;100.00;96293.13;5093136;28;20919;-33
2021/12/27 06:55:08;;;;;;;52.03;25.13;;;;;;;3.45;100.00;96293.53;5092766;28;20489;-33
2021/12/27 06:57:36;;;;;;;96.23;25.77;;;;;;;3.36;100.00;96291.34;5093085;28;20442;-33
2021/12/27 07:00:06;;;;;;;59.50;19.40;;;;;;;3.27;100.00;96294.16;5092326;28;20459;-32
2021/12/27 07:02:34;;;;;;;52.57;16.80;;;;;;;3.17;100.00;96293.75;5093197;28;20431;-31
2021/12/27 07:05:01;;;;;;;42.07;19.07;;;;;;;3.14;100.00;96288.09;5078109;28;20624;-32
2021/12/27 07:07:28;;;;;;;51.03;19.50;;;;;;;3.17;100.00;96293.75;5076006;28;20444;-32
2021/12/27 07:09:55;;;;;;;38.10;16.87;;;;;;;3.22;100.00;96295.75;5078829;28;20477;-32
2021/12/27 07:12:25;;;;;;;32.80;16.90;;;;;;;3.13;100.00;96296.97;5091430;28;20918;-33
2021/12/27 07:14:53;;;;;;;36.27;16.20;;;;;;;3.17;100.00;96304.25;5092672;28;20487;-33
2021/12/27 07:17:22;;;;;;;48.07;26.93;;;;;;;3.17;100.00;96308.69;5093585;28;20443;-33
2021/12/27 07:19:49;;;;;;;31.97;16.47;;;;;;;3.02;100.00;96270.34;5092121;28;21000;-33
2021/12/27 07:22:17;;;;;;;95.40;37.93;;;;;;;3.12;100.00;96290.94;5078528;28;20446;-32
2021/12/27 07:24:44;;;;;;;109.60;40.87;;;;;;;3.10;100.00;96286.88;5082682;28;20447;-32
2021/12/27 07:27:12;;;;;;;123.67;48.73;;;;;;;3.11;100.00;96307.66;5072715;28;20450;-33
2021/12/27 07:29:40;;;;;;;55.17;25.83;;;;;;;3.06;100.00;96289.09;5081625;28;20475;-32
2021/12/27 07:32:08;;;;;;;68.40;27.03;;;;;;;3.17;100.00;96309.47;5073149;28;20451;-32
2021/12/27 07:34:35;;;;;;;39.90;22.10;;;;;;;3.21;100.00;96309.91;5091313;28;20494;-33
2021/12/27 07:37:03;;;;;;;61.30;29.97;;;;;;;3.35;100.00;96310.69;5087728;28;20447;-33
2021/12/27 07:39:30;;;;;;;48.07;19.50;;;;;;;3.39;100.00;96314.53;5079293;28;20443;-33
2021/12/27 07:41:57;;;;;;;31.93;14.43;;;;;;;3.42;100.00;96306.25;5082079;28;20447;-32
2021/12/27 07:44:24;;;;;;;84.33;37.63;;;;;;;3.35;100.00;96302.81;5081032;28;20493;-34
2021/12/27 07:46:53;;;;;;;86.20;40.50;;;;;;;3.23;100.00;96303.44;5073516;28;20463;-34
2021/12/27 07:49:21;;;;;;;81.87;32.10;;;;;;;3.30;100.00;96307.88;5073257;28;20448;-35
2021/12/27 07:51:48;;;;;;;83.53;41.33;;;;;;;3.26;100.00;96297.78;5084617;28;20443;-33
2021/12/27 07:54:15;;;;;;;43.30;17.33;;;;;;;3.12;100.00;96301.41;5093294;28;20490;-34
2021/12/27 07:56:43;;;;;;;68.47;15.47;;;;;;;2.98;100.00;96294.53;5081764;28;20943;-34
2021/12/27 07:59:10;;;;;;;62.43;25.73;;;;;;;2.92;100.00;96305.81;5081262;28;20986;-35
2021/12/27 08:01:39;;;;;;;60.00;19.57;;;;;;;2.95;100.00;96289.72;5072716;28;20948;-32
2021/12/27 08:04:08;;;;;;;41.30;14.97;;;;;;;2.94;100.00;96282.84;5072816;28;20451;-34
2021/12/27 08:06:36;;;;;;;42.30;20.10;;;;;;;3.01;100.00;96299.38;5073418;28;20807;-34
2021/12/27 08:09:05;;;;;;;36.27;15.70;;;;;;;3.02;100.00;96280.03;5075895;28;20443;-35
2021/12/27 08:11:32;;;;;;;35.47;15.97;;;;;;;3.02;100.00;96280.03;5077497;28;20444;-34
2021/12/27 08:14:00;;;;;;;31.40;14.03;;;;;;;2.87;100.00;96257.41;5073064;28;20701;-34
2021/12/27 08:16:27;;;;;;;37.63;14.10;;;;;;;2.97;100.00;96277.19;5082698;28;20442;-34
2021/12/27 08:18:55;;;;;;;48.73;19.80;;;;;;;3.00;100.00;96271.53;5093438;28;20454;-34
2021/12/27 08:21:25;;;;;;;43.90;20.63;;;;;;;3.04;100.00;96299.00;5079942;28;20563;-34
2021/12/27 08:23:54;;;;;;;60.20;28.00;;;;;;;3.17;100.00;96278.00;5073508;28;20451;-34
2021/12/27 08:26:21;;;;;;;45.57;19.80;;;;;;;3.03;100.00;96239.66;5080035;28;20959;-35
2021/12/27 08:28:51;;;;;;;33.03;15.50;;;;;;;3.25;100.00;96269.94;5077582;28;20454;-35
2021/12/27 08:31:20;;;;;;;37.83;21.60;;;;;;;3.30;100.00;96271.16;5083620;28;20458;-35
2021/12/27 08:33:47;;;;;;;41.30;21.70;;;;;;;3.36;100.00;96280.84;5079274;28;20474;-35
2021/12/27 08:36:14;;;;;;;158.90;68.57;;;;;;;3.42;100.00;96274.75;5082857;28;20447;-35
2021/12/27 08:38:44;;;;;;;83.20;41.70;;;;;;;3.47;100.00;96261.84;5084321;28;20455;-34
2021/12/27 08:41:12;;;;;;;53.30;20.20;;;;;;;3.32;100.00;96242.88;5079726;28;20780;-36
2021/12/27 08:43:39;;;;;;;33.27;16.03;;;;;;;3.41;100.00;96278.41;5083640;28;20446;-34
2021/12/27 08:46:07;;;;;;;34.53;15.90;;;;;;;3.58;100.00;96263.84;5083020;28;20534;-33
2021/12/27 08:48:34;;;;;;;26.20;12.70;;;;;;;3.71;100.00;96263.00;5079503;28;20451;-35
2021/12/27 08:51:02;;;;;;;36.43;18.20;;;;;;;3.72;100.00;96274.31;5080379;28;20444;-35
2021/12/27 08:53:29;;;;;;;43.87;22.10;;;;;;;3.69;100.00;96260.56;5078017;28;20856;-35
2021/12/27 08:55:58;;;;;;;49.93;24.87;;;;;;;3.73;100.00;96247.06;5079681;28;20499;-33
2021/12/27 08:58:26;;;;;;;43.40;20.90;;;;;;;3.78;100.00;96247.22;5081864;28;21245;-34
2021/12/27 09:00:53;;;;;;;38.87;22.30;;;;;;;3.69;100.00;96251.91;5084333;28;20451;-35
2021/12/27 09:03:20;;;;;;;37.27;13.90;;;;;;;3.59;100.00;96254.97;5080827;28;20466;-34
2021/12/27 09:05:47;;;;;;;30.53;13.27;;;;;;;3.53;100.00;96245.28;5088689;28;20461;-35
2021/12/27 09:08:14;;;;;;;36.93;20.80;;;;;;;3.69;100.00;96244.81;5088644;28;20442;-35
2021/12/27 09:10:42;;;;;;;37.87;18.50;;;;;;;3.88;100.00;96252.88;5092169;28;20443;-34
2021/12/27 09:13:10;;;;;;;37.47;17.37;;;;;;;3.87;100.00;96238.94;5090836;28;20450;-33
2021/12/27 09:15:37;;;;;;;46.60;22.97;;;;;;;3.78;100.00;96239.34;5086141;28;20483;-35
2021/12/27 09:18:05;;;;;;;48.53;26.37;;;;;;;3.87;100.00;96251.22;5085938;28;21252;-34
2021/12/27 09:20:32;;;;;;;59.93;27.37;;;;;;;3.86;100.00;96244.38;5094860;28;20550;-35
2021/12/27 09:22:59;;;;;;;52.10;24.57;;;;;;;3.83;100.00;96239.53;5091787;28;20442;-35
2021/12/27 09:25:27;;;;;;;38.93;16.70;;;;;;;3.51;100.00;96273.56;5084191;28;20914;-33
2021/12/27 09:27:54;;;;;;;49.93;24.10;;;;;;;3.69;100.00;96229.06;5081834;28;20482;-35
2021/12/27 09:30:23;;;;;;;57.63;24.60;;;;;;;3.66;100.00;96228.69;5083521;28;20490;-35
2021/12/27 09:32:50;;;;;;;71.47;32.77;;;;;;;3.75;100.00;96221.41;5090371;28;20431;-35
2021/12/27 09:35:18;;;;;;;32.50;16.23;;;;;;;3.69;100.00;96220.41;5080493;28;20544;-35
2021/12/27 09:37:45;;;;;;;29.07;13.87;;;;;;;3.60;100.00;96193.56;5083243;28;20478;-36
2021/12/27 09:40:13;;;;;;;54.73;27.23;;;;;;;3.62;100.00;96196.00;5079550;28;20451;-35
2021/12/27 09:42:40;;;;;;;47.43;24.90;;;;;;;3.45;100.00;96174.63;5073139;28;20444;-34
2021/12/27 09:45:09;;;;;;;44.87;21.07;;;;;;;3.57;100.00;96194.00;5085387;28;20439;-35
2021/12/27 09:47:38;;;;;;;34.10;17.13;;;;;;;3.62;100.00;96191.53;5082052;28;20950;-35
2021/12/27 09:50:10;;;;;;;52.57;24.80;;;;;;;3.65;100.00;96183.22;5086211;28;20450;-36
2021/12/27 09:52:37;;;;;;;32.87;17.73;;;;;;;3.66;100.00;96192.75;5087079;28;20446;-34
2021/12/27 09:55:06;;;;;;;44.80;25.00;;;;;;;3.62;100.00;96181.03;5091748;28;20485;-35
2021/12/27 09:57:33;;;;;;;36.57;15.90;;;;;;;3.78;100.00;96210.47;5092876;28;20447;-35
2021/12/27 10:00:00;;;;;;;24.03;13.93;;;;;;;3.86;100.00;96205.78;5088651;28;20435;-35
2021/12/27 10:02:27;;;;;;;30.53;13.70;;;;;;;3.94;100.00;96199.50;5088311;28;20456;-33
2021/12/27 10:04:56;;;;;;;30.20;14.87;;;;;;;4.07;100.00;96202.06;5074854;28;20466;-36
2021/12/27 10:07:25;;;;;;;32.37;16.67;;;;;;;4.23;100.00;96199.97;5076357;28;20459;-35
2021/12/27 10:09:58;;;;;;;62.93;28.30;;;;;;;4.09;100.00;96165.09;5074194;28;20464;-34
2021/12/27 10:12:26;;;;;;;38.43;20.10;;;;;;;4.23;100.00;96182.38;5077063;28;20462;-34
2021/12/27 10:14:57;;;;;;;30.97;14.40;;;;;;;4.38;100.00;96179.47;5075994;28;20487;-33
2021/12/27 10:17:25;;;;;;;25.97;11.73;;;;;;;4.37;100.00;96177.84;5083449;28;20451;-34
2021/12/27 10:19:54;;;;;;;37.10;15.07;;;;;;;4.27;100.00;96174.88;5081371;28;21047;-34
2021/12/27 10:22:25;;;;;;;33.37;19.47;;;;;;;4.24;100.00;96180.56;5081025;28;20478;-33
2021/12/27 10:24:52;;;;;;;36.10;18.43;;;;;;;4.32;100.00;96175.03;5079179;28;20470;-33
2021/12/27 10:27:20;;;;;;;50.47;27.10;;;;;;;4.31;100.00;96173.44;5078428;28;20440;-33
2021/12/27 10:29:48;;;;;;;51.97;26.43;;;;;;;4.26;100.00;96171.47;5084500;28;20858;-33
2021/12/27 10:32:18;;;;;;;27.80;17.00;;;;;;;4.25;100.00;96176.91;5081984;28;20534;-33
2021/12/27 10:34:49;;;;;;;24.83;11.67;;;;;;;4.22;100.00;96169.47;5080888;28;20483;-33
2021/12/27 10:37:20;;;;;;;24.40;12.60;;;;;;;4.17;100.00;96164.03;5081032;28;20526;-33
2021/12/27 10:39:53;;;;;;;28.00;14.00;;;;;;;4.14;100.00;96156.56;5078719;28;20498;-33
2021/12/27 10:42:26;;;;;;;26.57;16.00;;;;;;;4.16;100.00;96165.06;5083986;28;20803;-33
2021/12/27 10:44:58;;;;;;;39.87;23.10;;;;;;;4.27;100.00;96157.28;5085409;28;20471;-33
2021/12/27 10:47:31;;;;;;;31.73;15.83;;;;;;;4.30;100.00;96161.31;5078913;28;20458;-33
2021/12/27 10:50:04;;;;;;;29.77;15.77;;;;;;;4.31;100.00;96141.91;5083273;28;20834;-33
2021/12/27 10:52:44;;;;;;;32.67;15.90;;;;;;;4.29;100.00;96143.94;5077109;28;20520;-33
2021/12/27 10:55:14;;;;;;;23.93;14.20;;;;;;;4.21;100.00;96131.84;5078227;28;20475;-33
2021/12/27 10:57:42;;;;;;;31.77;14.80;;;;;;;4.08;100.00;96140.63;5075636;28;20452;-33
2021/12/27 11:00:19;;;;;;;29.87;13.10;;;;;;;4.01;100.00;96131.97;5076872;28;21179;-35
2021/12/27 11:02:46;;;;;;;20.40;12.10;;;;;;;3.94;100.00;96141.72;5073797;28;20483;-34
2021/12/27 11:05:15;;;;;;;140.80;52.53;;;;;;;3.81;100.00;96139.97;5075597;28;20452;-34
2021/12/27 11:07:44;;;;;;;92.07;36.67;;;;;;;3.81;100.00;96121.59;5075452;28;20460;-33
2021/12/27 11:10:12;;;;;;;43.93;23.97;;;;;;;3.84;100.00;96125.59;5074822;28;20455;-33
2021/12/27 11:12:40;;;;;;;82.07;34.40;;;;;;;3.89;100.00;96136.28;5076139;28;20828;-34
2021/12/27 11:15:11;;;;;;;126.10;46.47;;;;;;;3.85;100.00;96127.19;5073228;28;20483;-33
2021/12/27 11:17:40;;;;;;;38.03;19.57;;;;;;;3.83;100.00;96131.84;5070698;28;20468;-36
2021/12/27 11:20:10;;;;;;;64.50;27.43;;;;;;;3.81;100.00;96131.28;5071754;28;20524;-34
2021/12/27 11:22:39;;;;;;;45.83;20.10;;;;;;;3.82;100.00;96123.19;5073100;28;20560;-35
2021/12/27 11:25:08;;;;;;;178.33;52.70;;;;;;;3.72;100.00;96116.78;5071144;28;20460;-36